Flight Track Log - Related Links

Times and Time Zones

All times are in EDT time to prevent confusion due to time zone crossing. See the GJS6241 flight status page for this flight to view local times or setup timezone preferences in your user account.

Time Position Orientation Groundspeed Altitude Reporting Facility
EDT Latitude Longitude Course Direction KTS MPH feet Rate Location/Type
Wed 11:07:06 PM 40.7500 -73.8500 166° South 172 198 1,600  Level New TRACON
Wed 11:08:06 PM 40.7000 -73.8333 166° South 255 293 4,700 3,048 Climbing New TRACON
Wed 11:09:12 PM 40.6333 -73.8833 210° Southwest 271 312 8,000 2,571 Climbing New TRACON
Wed 11:10:12 PM 40.5667 -73.9333 210° Southwest 283 326 10,100 1,100 Climbing New TRACON
Wed 11:11:12 PM 40.5000 -74.0000 217° Southwest 293 337 10,200 650 Climbing New TRACON
Wed 11:12:12 PM 40.4333 -74.0500 210° Southwest 282 325 11,400 2,368 Climbing New TRACON
Wed 11:13:06 PM 40.3667 -74.1000 210° Southwest 279 321 14,700 2,421 Climbing New TRACON
Wed 11:14:06 PM 40.3000 -74.1500 210° Southwest 295 339 16,000 700 Climbing New TRACON
Wed 11:15:06 PM 40.2667 -74.2500 246° West 318 366 16,100 46 Climbing New TRACON
Wed 11:16:16 PM 40.3136 -74.3503 302° West 328 377 16,100 504 Level New Center
Wed 11:17:17 PM 40.3517 -74.4639 294° West 317 365 17,200 1,240 Climbing New Center
Wed 11:18:17 PM 40.3608 -74.5681 277° West 292 336 18,600 1,250 Climbing New Center
Wed 11:19:17 PM 40.3281 -74.6806 249° West 299 344 19,700 661 Climbing New Center
Wed 11:20:15 PM 40.2950 -74.7956 249° West 321 369 19,900 151 Climbing New Center
Wed 11:21:16 PM 40.2642 -74.9053 250° West 326 375 20,000 50 Climbing New Center
Wed 11:22:16 PM 40.2308 -75.0175 249° West 326 375 20,000  Level New Center
Wed 11:23:17 PM 40.1994 -75.1381 251° West 338 389 20,000  Level New Center
Wed 11:24:18 PM 40.1681 -75.2528 250° West 344 396 20,000  Level New Center
Wed 11:25:15 PM 40.1392 -75.3542 250° West 344 396 20,000  Level New Center
Wed 11:26:16 PM 40.0992 -75.4656 245° Southwest 344 396 20,000  Level New Center
Wed 11:27:18 PM 40.0550 -75.5819 244° Southwest 350 403 20,000  Level New Center
Wed 11:28:17 PM 39.9925 -75.6833 231° Southwest 355 409 20,000  Level New Center
Wed 11:29:18 PM 39.9214 -75.7839 227° Southwest 378 435 20,000  Level New Center
Wed 11:30:16 PM 39.8706 -75.8992 240° Southwest 378 435 20,000  Level New Center
Wed 11:31:17 PM 39.8219 -76.0119 241° Southwest 371 427 20,000  Level New Center
Wed 11:33:43 PM 39.6867 -76.2900 238° Southwest 373 429 20,000  Level Washington Center
Wed 11:34:43 PM 39.6111 -76.3753 221° Southwest 373 429 20,000 -50 Level Washington Center
Wed 11:35:43 PM 39.5397 -76.4500 219° Southwest 359 413 19,900 -500 Descending Washington Center
Wed 11:36:43 PM 39.4414 -76.4917 198° South 348 400 19,000 -450 Descending Washington Center
Wed 11:37:43 PM 39.3306 -76.5467 201° Southwest 383 441 19,000  Level Washington Center
Wed 11:38:43 PM 39.2589 -76.6342 223° Southwest 361 415 19,000  Level Washington Center
Wed 11:39:43 PM 39.1917 -76.7164 223° Southwest 355 409 19,000  Level Washington Center
Wed 11:40:37 PM 39.1333 -76.8000 228° Southwest 377 434 19,000  Level Potomac TRACON
Wed 11:42:43 PM 38.9797 -77.0283 229° Southwest 411 473 19,000  Level Washington Center
Wed 11:43:43 PM 38.9139 -77.1444 234° Southwest 411 473 19,000  Level Washington Center
Wed 11:44:43 PM 38.8478 -77.2575 233° Southwest 405 466 19,000  Level Washington Center
Wed 11:45:43 PM 38.7836 -77.3653 233° Southwest 405 466 19,000 -150 Level Washington Center
Wed 11:46:43 PM 38.7194 -77.4756 233° Southwest 405 466 18,700 -1,100 Descending Washington Center
Wed 11:47:43 PM 38.6572 -77.5775 232° Southwest 394 453 16,800 -1,700 Descending Washington Center
Wed 11:48:43 PM 38.6078 -77.6639 234° Southwest 369 425 15,300 -1,650 Descending Washington Center
Wed 11:49:43 PM 38.5497 -77.7633 233° Southwest 358 412 13,500 -1,800 Descending Washington Center
Wed 11:50:43 PM 38.4939 -77.8544 232° Southwest 340 391 11,700 -1,750 Descending Washington Center
Wed 11:51:43 PM 38.4422 -77.9431 233° Southwest 330 380 10,000 -850 Descending Washington Center
Wed 11:52:43 PM 38.3883 -78.0339 233° Southwest 330 380 10,000 -1,441 Level Washington Center
Wed 11:55:07 PM 38.2833 -78.2167 234° Southwest 279 321 5,100 -1,765 Descending Potomac TRACON
Wed 11:56:07 PM 38.2500 -78.2833 238° Southwest 260 299 4,000 -789 Descending Potomac TRACON
Wed 11:57:01 PM 38.2500 -78.3500 270° West 240 276 3,600 -300 Descending Potomac TRACON
Wed 11:58:07 PM 38.2333 -78.4333 256° West 221 254 3,400 -95 Descending Potomac TRACON
Wed 11:59:07 PM 38.2333 -78.4500 270° West 145 167 3,400  Level Potomac TRACON
Thu 12:01:01 AM 38.2333 -78.4500 360° North 145 167 3,400  Level Potomac TRACON

Login

Don't have an account? Register now (free) for customized features, flight alerts, and more!